Bennett, Colorado
Current Conditions -  °F | °C
As of 3:50 PM on Tuesday 21 Oct 2014 (Local Time) from KFTG Reporting Station
Broken Clouds Broken Clouds  
Wind Chill: 77°   Ceiling: 15000
Heat Index: 77°   Visibility: 50mi
Dew Point: 32°   Wind: 6mph
Humidity: 19%   Direction: 210°SSW
Pressure: 29.92"   Gusts: NA
Location:  39.76°N, 104.43°W
Report Text: KFTG 212150Z 21005KT 50SM BKN150 25/00 A2992
Loading
Personal Weather Stations






























Interactive Weather Map New forecast layout! Learn more

10-Day Weather Forecast

Advertisements
Track Severe Weather on mobile